Time;durP1;ratioP1;P1;durP2;ratioP2;P2;SDS_P1;SDS_P2;PMS_P1;PMS_P2;Temp;Humidity;BMP_temperature;BMP_pressure;BME280_temperature;BME280_humidity;BME280_pressure;Samples;Min_cycle;Max_cycle;Signal;HPM_P1;HPM_P2
2021/09/30 00:01:16;;;;;;;;;;;11.00;96.40;;;;;;5034496;28;19912;-79
2021/09/30 00:03:42;;;;;;;;;;;11.10;95.00;;;;;;5035745;28;19908;-78
2021/09/30 00:06:08;;;;;;;;;;;11.10;94.80;;;;;;5034206;28;19992;-78
2021/09/30 00:08:33;;;;;;;;;;;10.80;94.90;;;;;;5035906;28;19944;-78
2021/09/30 00:11:05;;;;;;;;;;;10.60;95.90;;;;;;5035718;28;19960;-77
2021/09/30 00:48:07;;;;;;;;;;;9.80;95.10;;;;;;5035068;28;19912;-78
2021/09/30 00:50:47;;;;;;;;;;;9.90;94.70;;;;;;5034896;28;19913;-79
2021/09/30 02:29:30;;;;;;;;;;;8.90;95.10;;;;;;5037328;28;19951;-78
2021/09/30 02:38:55;;;;;;;;;;;7.90;97.50;;;;;;5045670;28;19909;-78
2021/09/30 02:59:22;;;;;;;;;;;7.90;98.50;;;;;;5036976;28;20008;-78
2021/09/30 03:01:48;;;;;;;;;;;8.20;98.30;;;;;;5036880;28;20400;-78
2021/09/30 03:04:14;;;;;;;;;;;8.20;98.00;;;;;;5036786;28;20275;-77
2021/09/30 03:06:41;;;;;;;;;;;8.30;97.60;;;;;;5036316;28;19962;-78
2021/09/30 03:09:07;;;;;;;;;;;8.50;97.20;;;;;;5036804;28;20007;-78
2021/09/30 03:11:38;;;;;;;;;;;8.40;97.10;;;;;;5036582;28;19912;-78
2021/09/30 03:14:05;;;;;;;;;;;8.00;98.30;;;;;;5035093;28;19909;-78
2021/09/30 03:16:46;;;;;;;;;;;8.00;98.70;;;;;;5036602;28;19909;-77
2021/09/30 03:24:30;;;;;;;;;;;8.00;99.10;;;;;;5036418;28;19970;-78
2021/09/30 03:26:56;;;;;;;;;;;8.20;98.60;;;;;;5035144;28;20424;-78
2021/09/30 03:29:22;;;;;;;;;;;8.10;98.60;;;;;;5036015;28;19928;-78
2021/09/30 03:31:48;;;;;;;;;;;8.30;97.40;;;;;;5036290;28;19905;-77
2021/09/30 03:34:14;;;;;;;;;;;8.30;96.90;;;;;;5036350;28;19909;-78
2021/09/30 03:36:39;;;;;;;;;;;8.30;96.70;;;;;;5034916;28;20318;-78
2021/09/30 03:39:12;;;;;;;;;;;8.20;96.50;;;;;;5036126;28;19909;-78
2021/09/30 03:41:40;;;;;;;;;;;8.10;96.30;;;;;;5036142;28;20336;-78
2021/09/30 03:44:06;;;;;;;;;;;7.50;97.60;;;;;;5036120;28;19909;-77
2021/09/30 03:46:32;;;;;;;;;;;7.20;98.50;;;;;;5034739;28;19932;-77
2021/09/30 03:48:59;;;;;;;;;;;7.00;99.50;;;;;;5034669;28;20368;-78
2021/09/30 03:52:10;;;;;;;;;;;7.10;99.70;;;;;;5034566;28;19963;-79
2021/09/30 03:59:19;;;;;;;;;;;8.00;97.20;;;;;;5035681;28;19905;-77
2021/09/30 04:01:55;;;;;;;;;;;8.10;96.90;;;;;;5035945;28;19909;-78
2021/09/30 04:04:21;;;;;;;;;;;8.10;96.50;;;;;;5034195;28;20289;-78
2021/09/30 04:06:46;;;;;;;;;;;8.10;96.50;;;;;;5033998;28;19913;-78
2021/09/30 04:09:12;;;;;;;;;;;8.00;96.00;;;;;;5035604;28;20301;-78
2021/09/30 04:11:40;;;;;;;;;;;7.80;96.70;;;;;;5035980;28;19920;-78
2021/09/30 04:14:06;;;;;;;;;;;7.30;97.40;;;;;;5035804;28;19909;-77
2021/09/30 04:16:32;;;;;;;;;;;7.00;99.30;;;;;;5034220;28;19995;-78
2021/09/30 04:18:57;;;;;;;;;;;6.80;99.90;;;;;;5035484;28;19905;-78
2021/09/30 04:21:23;;;;;;;;;;;7.00;99.90;;;;;;5034111;28;19905;-78
2021/09/30 04:23:48;;;;;;;;;;;7.10;99.90;;;;;;5034000;28;19912;-78
2021/09/30 04:26:14;;;;;;;;;;;7.10;99.80;;;;;;5035315;28;20365;-78
2021/09/30 04:28:39;;;;;;;;;;;7.00;99.90;;;;;;5035368;28;19940;-78
2021/09/30 04:31:05;;;;;;;;;;;7.20;99.90;;;;;;5035114;28;20412;-77
2021/09/30 04:33:31;;;;;;;;;;;7.30;99.90;;;;;;5035074;28;19905;-78
2021/09/30 04:35:57;;;;;;;;;;;7.40;99.90;;;;;;5035072;28;19913;-78
2021/09/30 04:38:23;;;;;;;;;;;7.40;99.90;;;;;;5035177;28;19993;-78
2021/09/30 04:40:48;;;;;;;;;;;7.60;99.30;;;;;;5034121;28;20280;-78
2021/09/30 04:43:14;;;;;;;;;;;7.90;98.40;;;;;;5034892;28;20391;-78
2021/09/30 04:45:39;;;;;;;;;;;8.00;97.90;;;;;;5034904;28;19905;-77
2021/09/30 04:48:05;;;;;;;;;;;7.90;97.70;;;;;;5035067;28;19909;-78
2021/09/30 04:50:31;;;;;;;;;;;7.90;97.10;;;;;;5034743;28;19940;-77
2021/09/30 04:53:00;;;;;;;;;;;7.70;96.60;;;;;;5033444;28;19991;-78
2021/09/30 04:55:26;;;;;;;;;;;7.60;96.80;;;;;;5033482;28;19928;-78
2021/09/30 04:57:52;;;;;;;;;;;7.50;97.20;;;;;;5034688;28;19905;-78
2021/09/30 05:00:17;;;;;;;;;;;7.40;97.60;;;;;;5034613;28;19912;-77
2021/09/30 05:02:46;;;;;;;;;;;7.40;97.10;;;;;;5034560;28;20365;-78
2021/09/30 05:05:13;;;;;;;;;;;7.20;97.90;;;;;;5032980;28;19932;-77
2021/09/30 05:07:38;;;;;;;;;;;7.50;97.20;;;;;;5034892;28;19905;-78
2021/09/30 05:10:05;;;;;;;;;;;7.60;97.40;;;;;;5033169;28;19919;-78
2021/09/30 05:12:31;;;;;;;;;;;7.70;97.30;;;;;;5034525;28;20423;-78
2021/09/30 05:14:56;;;;;;;;;;;7.40;97.70;;;;;;5034498;28;19905;-78
2021/09/30 05:17:22;;;;;;;;;;;7.20;98.20;;;;;;5034337;28;19955;-78
2021/09/30 05:19:47;;;;;;;;;;;7.20;98.10;;;;;;5033018;28;19905;-78
2021/09/30 05:22:13;;;;;;;;;;;6.80;99.20;;;;;;5032926;28;20285;-78
2021/09/30 05:24:39;;;;;;;;;;;7.10;99.30;;;;;;5034242;28;19912;-78
2021/09/30 05:27:04;;;;;;;;;;;7.40;97.80;;;;;;5034213;28;19905;-78
2021/09/30 05:29:30;;;;;;;;;;;7.40;97.10;;;;;;5034033;28;19932;-78
2021/09/30 05:31:55;;;;;;;;;;;7.40;97.20;;;;;;5034070;28;19905;-78
2021/09/30 05:34:21;;;;;;;;;;;7.50;96.90;;;;;;5034081;28;20403;-78
2021/09/30 05:36:47;;;;;;;;;;;7.50;97.20;;;;;;5033980;28;19905;-77
2021/09/30 05:39:12;;;;;;;;;;;7.20;97.60;;;;;;5033914;28;19947;-78
2021/09/30 05:41:38;;;;;;;;;;;7.10;97.90;;;;;;5033859;28;19912;-78
2021/09/30 05:44:09;;;;;;;;;;;7.00;98.10;;;;;;5034123;28;19959;-78
2021/09/30 05:46:41;;;;;;;;;;;6.90;99.00;;;;;;5032315;28;20283;-77
2021/09/30 05:49:07;;;;;;;;;;;6.90;99.20;;;;;;5033989;28;19905;-78
2021/09/30 05:51:33;;;;;;;;;;;6.90;99.10;;;;;;5033505;28;19909;-78
2021/09/30 05:53:58;;;;;;;;;;;7.10;99.00;;;;;;5034121;28;19932;-78
2021/09/30 05:56:24;;;;;;;;;;;7.00;99.10;;;;;;5033826;28;20278;-78
2021/09/30 05:58:49;;;;;;;;;;;6.90;99.50;;;;;;5032369;28;19905;-78
2021/09/30 06:01:39;;;;;;;;;;;6.80;99.90;;;;;;5033573;28;19916;-78
2021/09/30 06:14:47;;;;;;;;;;;6.80;99.90;;;;;;5033686;28;20026;-78
2021/09/30 06:17:13;;;;;;;;;;;7.20;98.90;;;;;;5033601;28;19905;-78
2021/09/30 06:19:38;;;;;;;;;;;7.40;97.90;;;;;;5033423;28;19912;-78
2021/09/30 06:22:07;;;;;;;;;;;7.50;96.90;;;;;;5033825;28;19991;-78
2021/09/30 06:24:33;;;;;;;;;;;7.60;96.80;;;;;;5033442;28;20004;-77
2021/09/30 06:26:59;;;;;;;;;;;7.70;96.60;;;;;;5033544;28;19962;-77
2021/09/30 06:29:24;;;;;;;;;;;7.80;96.40;;;;;;5033319;28;19905;-77
2021/09/30 06:31:50;;;;;;;;;;;7.80;97.10;;;;;;5033333;28;19905;-78
2021/09/30 06:34:16;;;;;;;;;;;8.10;97.10;;;;;;5033410;28;19905;-78
2021/09/30 06:36:41;;;;;;;;;;;8.10;96.70;;;;;;5033311;28;19905;-78
2021/09/30 06:39:07;;;;;;;;;;;8.40;96.00;;;;;;5033330;28;19944;-78
2021/09/30 06:41:33;;;;;;;;;;;8.60;95.60;;;;;;5031987;28;20369;-78
2021/09/30 06:43:58;;;;;;;;;;;8.60;95.60;;;;;;5033328;28;19909;-78
2021/09/30 06:46:24;;;;;;;;;;;8.90;95.20;;;;;;5033707;28;20285;-78
2021/09/30 06:48:50;;;;;;;;;;;9.10;96.00;;;;;;5033390;28;19906;-78
2021/09/30 06:51:16;;;;;;;;;;;9.50;93.90;;;;;;5033152;28;20365;-78
2021/09/30 06:53:41;;;;;;;;;;;9.70;93.10;;;;;;5033198;28;19905;-78
2021/09/30 06:56:10;;;;;;;;;;;9.50;92.50;;;;;;5031896;28;19932;-78
2021/09/30 06:58:41;;;;;;;;;;;9.00;94.50;;;;;;5033394;28;20274;-78
2021/09/30 07:01:10;;;;;;;;;;;9.60;95.00;;;;;;5033397;28;19905;-78
2021/09/30 07:03:36;;;;;;;;;;;10.40;93.10;;;;;;5034552;28;19909;-78
2021/09/30 07:06:02;;;;;;;;;;;10.80;91.50;;;;;;5036599;28;19913;-78
2021/09/30 07:08:28;;;;;;;;;;;11.50;89.60;;;;;;5036977;28;19909;-78
2021/09/30 07:10:53;;;;;;;;;;;11.70;87.70;;;;;;5036705;28;20447;-78
2021/09/30 07:13:19;;;;;;;;;;;12.00;87.50;;;;;;5036660;28;19952;-79
2021/09/30 07:15:45;;;;;;;;;;;12.20;87.20;;;;;;5036654;28;19916;-77
2021/09/30 07:18:17;;;;;;;;;;;11.90;87.30;;;;;;5036544;28;20004;-78
2021/09/30 07:20:43;;;;;;;;;;;12.20;88.20;;;;;;5036730;28;19912;-78
2021/09/30 07:23:09;;;;;;;;;;;12.10;88.30;;;;;;5036472;28;19905;-78
2021/09/30 07:25:34;;;;;;;;;;;12.40;87.80;;;;;;5035156;28;20446;-79
2021/09/30 07:28:00;;;;;;;;;;;12.40;86.40;;;;;;5036572;28;19912;-79
2021/09/30 07:30:26;;;;;;;;;;;12.20;87.60;;;;;;5036251;28;19920;-79
2021/09/30 07:32:51;;;;;;;;;;;12.80;87.80;;;;;;5036308;28;19905;-79
2021/09/30 07:35:17;;;;;;;;;;;13.50;85.80;;;;;;5035011;28;19904;-79
2021/09/30 07:37:44;;;;;;;;;;;14.20;84.20;;;;;;5034877;28;19905;-79
2021/09/30 07:40:10;;;;;;;;;;;14.70;81.80;;;;;;5036748;28;19905;-79
2021/09/30 07:42:36;;;;;;;;;;;14.90;83.00;;;;;;5036085;28;19988;-79
2021/09/30 07:45:01;;;;;;;;;;;15.10;83.30;;;;;;5036127;28;19905;-79
2021/09/30 07:47:27;;;;;;;;;;;15.20;85.70;;;;;;5034763;28;19905;-79
2021/09/30 07:49:53;;;;;;;;;;;15.30;86.50;;;;;;5036290;28;19908;-79
2021/09/30 07:52:19;;;;;;;;;;;15.60;85.50;;;;;;5034669;28;19951;-79
2021/09/30 07:54:44;;;;;;;;;;;15.80;85.70;;;;;;5035931;28;19914;-79
2021/09/30 07:57:10;;;;;;;;;;;16.20;83.90;;;;;;5034533;28;19906;-79
2021/09/30 07:59:36;;;;;;;;;;;16.30;83.80;;;;;;5035833;28;19912;-79
2021/09/30 08:02:02;;;;;;;;;;;16.60;82.00;;;;;;5034475;28;19928;-78
2021/09/30 08:04:28;;;;;;;;;;;17.00;79.90;;;;;;5034425;28;19905;-79
2021/09/30 08:06:53;;;;;;;;;;;16.90;82.10;;;;;;5035529;28;19913;-79
2021/09/30 08:09:19;;;;;;;;;;;17.70;79.80;;;;;;5035697;28;19912;-79
2021/09/30 08:11:45;;;;;;;;;;;18.80;76.10;;;;;;5034233;28;19929;-79
2021/09/30 08:14:11;;;;;;;;;;;19.20;74.80;;;;;;5035466;28;20428;-79
2021/09/30 08:16:37;;;;;;;;;;;19.20;74.60;;;;;;5035520;28;19905;-78
2021/09/30 08:19:02;;;;;;;;;;;18.80;75.10;;;;;;5035445;28;19905;-79
2021/09/30 08:21:28;;;;;;;;;;;19.10;73.50;;;;;;5035530;28;19905;-79
2021/09/30 08:23:54;;;;;;;;;;;18.90;73.70;;;;;;5034038;28;19967;-79
2021/09/30 08:26:19;;;;;;;;;;;19.70;73.80;;;;;;5035481;28;19911;-80
2021/09/30 08:28:48;;;;;;;;;;;20.40;70.60;;;;;;5033985;28;19931;-80
2021/09/30 08:31:13;;;;;;;;;;;20.20;70.50;;;;;;5035149;28;19909;-79
2021/09/30 08:33:42;;;;;;;;;;;20.20;69.90;;;;;;5033862;28;20312;-79
2021/09/30 08:36:12;;;;;;;;;;;21.40;67.90;;;;;;5033801;28;19912;-77
2021/09/30 08:38:38;;;;;;;;;;;22.20;64.30;;;;;;5034998;28;20000;-78
2021/09/30 08:41:04;;;;;;;;;;;22.00;64.30;;;;;;5033736;28;20039;-77
2021/09/30 08:43:30;;;;;;;;;;;20.60;67.20;;;;;;5035135;28;19948;-77
2021/09/30 08:45:56;;;;;;;;;;;21.60;66.10;;;;;;5035004;28;19905;-78
2021/09/30 08:48:22;;;;;;;;;;;20.70;64.50;;;;;;5034910;28;19912;-77
2021/09/30 08:50:48;;;;;;;;;;;21.30;66.50;;;;;;5034901;28;20000;-77
2021/09/30 08:53:13;;;;;;;;;;;21.30;64.60;;;;;;5035039;28;19936;-77
2021/09/30 08:55:40;;;;;;;;;;;21.00;64.60;;;;;;5033493;28;19955;-76
2021/09/30 08:58:06;;;;;;;;;;;20.00;66.30;;;;;;5034563;28;20444;-77
2021/09/30 09:00:33;;;;;;;;;;;21.70;63.90;;;;;;5034683;28;19905;-76
2021/09/30 09:02:58;;;;;;;;;;;20.90;63.00;;;;;;5034588;28;19905;-76
2021/09/30 09:05:25;;;;;;;;;;;22.50;61.60;;;;;;5034297;28;19959;-77
2021/09/30 09:07:54;;;;;;;;;;;22.30;60.50;;;;;;5033254;28;19909;-76
2021/09/30 09:10:22;;;;;;;;;;;23.40;60.10;;;;;;5034939;28;19921;-77
2021/09/30 09:12:59;;;;;;;;;;;24.40;57.30;;;;;;5034573;28;19911;-77
2021/09/30 09:15:25;;;;;;;;;;;24.00;55.90;;;;;;5034423;28;19908;-77
2021/09/30 09:17:51;;;;;;;;;;;24.80;54.70;;;;;;5034775;28;19905;-77
2021/09/30 09:20:16;;;;;;;;;;;23.60;54.30;;;;;;5033057;28;19964;-77
2021/09/30 09:22:42;;;;;;;;;;;24.30;54.00;;;;;;5034525;28;19984;-77
2021/09/30 09:25:16;;;;;;;;;;;25.00;52.50;;;;;;5034200;28;19909;-77
2021/09/30 09:28:11;;;;;;;;;;;24.50;54.00;;;;;;5033706;28;19905;-76
2021/09/30 09:30:41;;;;;;;;;;;24.90;53.10;;;;;;5033853;28;20028;-76
2021/09/30 09:33:07;;;;;;;;;;;23.60;53.70;;;;;;5034111;28;19955;-76
2021/09/30 09:35:53;;;;;;;;;;;24.30;54.20;;;;;;5032757;28;19905;-76
2021/09/30 09:38:20;;;;;;;;;;;23.60;55.10;;;;;;5034134;28;19905;-77
2021/09/30 09:40:46;;;;;;;;;;;22.40;55.40;;;;;;5033964;28;19909;-77
2021/09/30 09:43:32;;;;;;;;;;;25.00;53.80;;;;;;5033961;28;19963;-77
2021/09/30 09:45:58;;;;;;;;;;;24.00;53.80;;;;;;5034145;28;19905;-77
2021/09/30 09:48:24;;;;;;;;;;;24.40;53.50;;;;;;5034008;28;19905;-77
2021/09/30 09:50:50;;;;;;;;;;;23.80;55.10;;;;;;5033926;28;19963;-77
2021/09/30 09:53:17;;;;;;;;;;;24.20;55.30;;;;;;5033783;28;19909;-77
2021/09/30 09:55:42;;;;;;;;;;;25.90;51.90;;;;;;5034260;28;19905;-77
2021/09/30 09:58:12;;;;;;;;;;;26.40;50.90;;;;;;5033752;28;20353;-77
2021/09/30 10:00:39;;;;;;;;;;;26.50;50.70;;;;;;5032444;28;20361;-77
2021/09/30 10:03:14;;;;;;;;;;;26.70;50.20;;;;;;5033752;28;19905;-77
2021/09/30 10:05:40;;;;;;;;;;;26.70;49.70;;;;;;5032251;28;19956;-77
2021/09/30 10:08:09;;;;;;;;;;;27.10;47.50;;;;;;5033761;28;19909;-78
2021/09/30 10:10:36;;;;;;;;;;;28.20;46.20;;;;;;5033551;28;20002;-78
2021/09/30 10:13:02;;;;;;;;;;;27.80;46.30;;;;;;5033566;28;19905;-78
2021/09/30 10:15:28;;;;;;;;;;;28.40;46.80;;;;;;5033861;28;19905;-77
2021/09/30 10:17:54;;;;;;;;;;;26.50;47.40;;;;;;5033500;28;19958;-78
2021/09/30 10:20:19;;;;;;;;;;;28.00;47.40;;;;;;5032237;28;19905;-78
2021/09/30 10:22:52;;;;;;;;;;;30.30;44.60;;;;;;5032250;28;19905;-77
2021/09/30 10:25:18;;;;;;;;;;;29.60;44.30;;;;;;5033485;28;19905;-78
2021/09/30 10:27:44;;;;;;;;;;;28.00;47.10;;;;;;5032153;28;20360;-78
2021/09/30 10:30:30;;;;;;;;;;;31.10;42.70;;;;;;5033506;28;19913;-79
2021/09/30 10:32:56;;;;;;;;;;;31.90;41.90;;;;;;5031866;28;19931;-78
2021/09/30 10:35:31;;;;;;;;;;;30.10;41.90;;;;;;5033578;28;20369;-78
2021/09/30 10:38:17;;;;;;;;;;;27.90;43.50;;;;;;5033715;28;19912;-77
2021/09/30 10:41:01;;;;;;;;;;;27.00;45.40;;;;;;5037515;28;19940;-78
2021/09/30 10:43:27;;;;;;;;;;;27.30;45.50;;;;;;5037375;28;19932;-78
2021/09/30 10:45:53;;;;;;;;;;;27.70;43.90;;;;;;5035938;28;19905;-78
2021/09/30 10:48:24;;;;;;;;;;;29.80;43.50;;;;;;5037153;28;19991;-79
2021/09/30 10:50:51;;;;;;;;;;;28.40;41.30;;;;;;5035731;28;19913;-77
2021/09/30 10:53:17;;;;;;;;;;;29.70;43.60;;;;;;5037092;28;20350;-78
2021/09/30 10:55:43;;;;;;;;;;;28.80;43.70;;;;;;5037246;28;19905;-78
2021/09/30 10:58:21;;;;;;;;;;;28.80;42.40;;;;;;5037019;28;19947;-78
2021/09/30 11:00:48;;;;;;;;;;;29.10;42.70;;;;;;5037157;28;19912;-78
2021/09/30 11:03:20;;;;;;;;;;;28.80;43.20;;;;;;5037354;28;19951;-79
2021/09/30 11:06:15;;;;;;;;;;;28.60;43.30;;;;;;5035297;28;19917;-78
2021/09/30 11:08:43;;;;;;;;;;;30.60;43.10;;;;;;5036166;28;19951;-79
2021/09/30 11:11:09;;;;;;;;;;;29.80;42.80;;;;;;5036901;28;19913;-79
2021/09/30 11:14:08;;;;;;;;;;;30.70;42.20;;;;;;5035390;28;19905;-79
2021/09/30 11:16:38;;;;;;;;;;;28.20;42.50;;;;;;5013313;28;19955;-78
2021/09/30 11:19:04;;;;;;;;;;;28.80;44.80;;;;;;5035259;28;19995;-78
2021/09/30 11:21:32;;;;;;;;;;;28.80;44.40;;;;;;5036694;28;19990;-79
2021/09/30 11:23:58;;;;;;;;;;;30.10;44.10;;;;;;5035219;28;19905;-78
2021/09/30 11:26:24;;;;;;;;;;;28.00;45.10;;;;;;5036446;28;19912;-78
2021/09/30 11:28:51;;;;;;;;;;;25.20;47.60;;;;;;5036418;28;20401;-78
2021/09/30 11:31:27;;;;;;;;;;;25.80;48.60;;;;;;5036625;28;20373;-76
2021/09/30 11:33:54;;;;;;;;;;;24.30;50.60;;;;;;5036344;28;20349;-77
2021/09/30 11:36:20;;;;;;;;;;;22.40;53.90;;;;;;5036232;28;20372;-78
2021/09/30 11:38:46;;;;;;;;;;;25.80;48.70;;;;;;5036412;28;20340;-78
2021/09/30 11:41:12;;;;;;;;;;;28.50;48.10;;;;;;5036362;28;19995;-78
2021/09/30 11:43:39;;;;;;;;;;;30.00;44.90;;;;;;5036141;28;19905;-78
2021/09/30 11:46:23;;;;;;;;;;;27.40;47.40;;;;;;5036117;28;19905;-77
2021/09/30 11:49:21;;;;;;;;;;;26.10;49.80;;;;;;5035619;28;20005;-78
2021/09/30 11:51:48;;;;;;;;;;;25.40;50.20;;;;;;5034751;28;19955;-77
2021/09/30 11:54:15;;;;;;;;;;;25.10;51.40;;;;;;5035886;28;20369;-77
2021/09/30 11:56:42;;;;;;;;;;;24.70;51.70;;;;;;5036009;28;19912;-77
2021/09/30 11:59:08;;;;;;;;;;;24.00;53.70;;;;;;5035923;28;20328;-77
2021/09/30 12:01:34;;;;;;;;;;;22.80;55.10;;;;;;5035726;28;20003;-76
2021/09/30 12:04:00;;;;;;;;;;;23.40;56.60;;;;;;5034393;28;20425;-77
2021/09/30 12:06:42;;;;;;;;;;;23.90;54.10;;;;;;5035560;28;19951;-76
2021/09/30 12:09:09;;;;;;;;;;;24.10;54.30;;;;;;5035626;28;19905;-77
2021/09/30 12:11:39;;;;;;;;;;;22.80;55.60;;;;;;5034247;28;19913;-76
2021/09/30 12:14:05;;;;;;;;;;;22.50;56.50;;;;;;5035796;28;19909;-76
2021/09/30 12:16:31;;;;;;;;;;;21.90;58.40;;;;;;5034242;28;19905;-77
2021/09/30 12:18:58;;;;;;;;;;;22.10;59.00;;;;;;5035461;28;19905;-77
2021/09/30 12:21:33;;;;;;;;;;;22.30;58.80;;;;;;5035370;28;19912;-76
2021/09/30 12:23:58;;;;;;;;;;;21.70;59.10;;;;;;5035476;28;20284;-76
2021/09/30 12:26:24;;;;;;;;;;;22.30;59.10;;;;;;5035269;28;19912;-77
2021/09/30 12:28:51;;;;;;;;;;;22.60;58.70;;;;;;5035203;28;19905;-77
2021/09/30 12:31:17;;;;;;;;;;;22.60;57.90;;;;;;5035325;28;19909;-77
2021/09/30 12:33:42;;;;;;;;;;;23.10;57.60;;;;;;5035151;28;19912;-76
2021/09/30 12:36:08;;;;;;;;;;;22.40;57.80;;;;;;5033610;28;20288;-77
2021/09/30 12:38:34;;;;;;;;;;;22.40;59.10;;;;;;5035085;28;19911;-77
2021/09/30 12:41:05;;;;;;;;;;;22.30;59.30;;;;;;5035422;28;19905;-76
2021/09/30 12:43:32;;;;;;;;;;;22.30;57.70;;;;;;5033478;28;19999;-77
2021/09/30 12:46:05;;;;;;;;;;;22.00;58.70;;;;;;5035056;28;20284;-77
2021/09/30 12:48:32;;;;;;;;;;;21.00;61.70;;;;;;5034850;28;19985;-77
2021/09/30 12:51:01;;;;;;;;;;;21.10;61.70;;;;;;5033554;28;19916;-77
2021/09/30 12:53:27;;;;;;;;;;;24.70;55.10;;;;;;5034965;28;19905;-77
2021/09/30 12:56:02;;;;;;;;;;;24.50;53.90;;;;;;5033506;28;19904;-77
2021/09/30 12:58:32;;;;;;;;;;;23.20;56.20;;;;;;5034810;28;19905;-77
2021/09/30 13:00:59;;;;;;;;;;;21.80;59.00;;;;;;5033829;28;19905;-76
2021/09/30 13:03:25;;;;;;;;;;;21.50;60.00;;;;;;5034643;28;19912;-78
2021/09/30 13:05:52;;;;;;;;;;;24.90;54.30;;;;;;5034163;28;20007;-78
2021/09/30 13:08:38;;;;;;;;;;;28.10;48.60;;;;;;5034534;28;19909;-77
2021/09/30 13:11:22;;;;;;;;;;;25.20;51.80;;;;;;5032834;28;19913;-77
2021/09/30 13:14:06;;;;;;;;;;;23.30;55.50;;;;;;5034594;28;19944;-78
2021/09/30 13:16:32;;;;;;;;;;;29.90;49.90;;;;;;5034380;28;19905;-78
2021/09/30 13:18:58;;;;;;;;;;;28.40;47.10;;;;;;5033062;28;19971;-78
2021/09/30 13:21:23;;;;;;;;;;;30.90;45.40;;;;;;5034289;28;20270;-78
2021/09/30 13:23:49;;;;;;;;;;;33.90;43.70;;;;;;5032973;28;19912;-78
2021/09/30 13:26:14;;;;;;;;;;;33.80;42.90;;;;;;5034249;28;20403;-79
2021/09/30 13:28:40;;;;;;;;;;;33.30;41.80;;;;;;5032873;28;19905;-79
2021/09/30 13:31:05;;;;;;;;;;;34.40;41.10;;;;;;5032778;28;20289;-79
2021/09/30 13:33:32;;;;;;;;;;;35.50;40.50;;;;;;5034090;28;19905;-78
2021/09/30 13:35:58;;;;;;;;;;;32.00;41.30;;;;;;5032696;28;19905;-78
2021/09/30 13:38:23;;;;;;;;;;;28.30;44.50;;;;;;5032542;28;19912;-78
2021/09/30 13:40:49;;;;;;;;;;;31.50;42.60;;;;;;5033865;28;19905;-78
2021/09/30 13:43:16;;;;;;;;;;;28.70;45.70;;;;;;5032490;28;19905;-77
2021/09/30 13:45:42;;;;;;;;;;;30.80;44.90;;;;;;5032612;28;20278;-78
2021/09/30 13:48:07;;;;;;;;;;;32.30;43.50;;;;;;5034129;28;19905;-79
2021/09/30 13:50:33;;;;;;;;;;;32.60;41.40;;;;;;5033786;28;19909;-78
2021/09/30 13:52:59;;;;;;;;;;;32.80;40.50;;;;;;5032480;28;19905;-78
2021/09/30 13:55:26;;;;;;;;;;;31.50;43.50;;;;;;5033780;28;19927;-77
2021/09/30 13:57:52;;;;;;;;;;;30.40;43.70;;;;;;5033879;28;20369;-78
2021/09/30 14:00:18;;;;;;;;;;;29.30;44.50;;;;;;5032460;28;19978;-78
2021/09/30 14:02:45;;;;;;;;;;;30.40;46.00;;;;;;5032469;28;20404;-78
2021/09/30 14:05:11;;;;;;;;;;;28.50;48.90;;;;;;5033449;28;19966;-78
2021/09/30 14:07:40;;;;;;;;;;;30.10;44.70;;;;;;5032059;28;19909;-77
2021/09/30 14:10:08;;;;;;;;;;;26.40;47.90;;;;;;5033507;28;19921;-78
2021/09/30 14:12:33;;;;;;;;;;;28.70;47.50;;;;;;5036158;28;20281;-77
2021/09/30 14:14:59;;;;;;;;;;;30.20;44.70;;;;;;5038860;28;19905;-77
2021/09/30 14:17:25;;;;;;;;;;;30.90;43.90;;;;;;5038849;28;19911;-77
2021/09/30 14:19:50;;;;;;;;;;;28.70;42.90;;;;;;5038856;28;20004;-78
2021/09/30 14:22:16;;;;;;;;;;;26.70;46.80;;;;;;5040248;28;20003;-77
2021/09/30 14:24:41;;;;;;;;;;;26.20;49.30;;;;;;5040075;28;19905;-77
2021/09/30 14:27:07;;;;;;;;;;;25.60;49.70;;;;;;5038758;28;19912;-77
2021/09/30 14:29:34;;;;;;;;;;;23.20;54.70;;;;;;5040513;28;20348;-80
2021/09/30 14:31:59;;;;;;;;;;;24.20;53.40;;;;;;5039911;28;19909;-79
2021/09/30 14:34:26;;;;;;;;;;;25.20;51.80;;;;;;5040073;28;19909;-79
2021/09/30 14:36:51;;;;;;;;;;;24.10;52.50;;;;;;5040102;28;19905;-79
2021/09/30 14:39:17;;;;;;;;;;;22.60;55.50;;;;;;5039912;28;19912;-79
2021/09/30 14:41:43;;;;;;;;;;;22.50;56.70;;;;;;5038648;28;19905;-79
2021/09/30 14:44:09;;;;;;;;;;;22.10;56.10;;;;;;5039978;28;19911;-79
2021/09/30 14:46:35;;;;;;;;;;;22.00;56.20;;;;;;5040093;28;19912;-79
2021/09/30 14:49:00;;;;;;;;;;;24.50;54.10;;;;;;5038618;28;19905;-79
2021/09/30 14:51:26;;;;;;;;;;;23.40;54.40;;;;;;5039834;28;19974;-79
2021/09/30 14:53:51;;;;;;;;;;;22.80;56.40;;;;;;5038534;28;19905;-79
2021/09/30 14:56:17;;;;;;;;;;;23.50;55.40;;;;;;5039825;28;19905;-79
2021/09/30 14:58:43;;;;;;;;;;;23.10;54.60;;;;;;5039934;28;20345;-79
2021/09/30 15:01:08;;;;;;;;;;;22.20;56.70;;;;;;5038510;28;19905;-80
2021/09/30 15:03:34;;;;;;;;;;;24.20;52.80;;;;;;5039877;28;19912;-79
2021/09/30 15:06:00;;;;;;;;;;;22.40;56.50;;;;;;5039528;28;20340;-80
2021/09/30 15:08:26;;;;;;;;;;;23.30;54.00;;;;;;5039767;28;20093;-79
2021/09/30 15:10:51;;;;;;;;;;;22.10;57.70;;;;;;5038405;28;19920;-79
2021/09/30 15:13:17;;;;;;;;;;;21.80;58.10;;;;;;5039880;28;19992;-79
2021/09/30 15:15:43;;;;;;;;;;;23.00;56.90;;;;;;5039713;28;19912;-79
2021/09/30 15:18:21;;;;;;;;;;;22.80;56.50;;;;;;5039612;28;19941;-79
2021/09/30 15:23:31;;;;;;;;;;;21.30;60.50;;;;;;5038864;28;19959;-79
2021/09/30 15:25:58;;;;;;;;;;;21.90;59.40;;;;;;5034893;28;19909;-79
2021/09/30 15:28:25;;;;;;;;;;;22.30;57.10;;;;;;5036801;28;19912;-80
2021/09/30 15:30:53;;;;;;;;;;;21.10;59.80;;;;;;5035012;28;19966;-79
2021/09/30 15:33:19;;;;;;;;;;;20.70;62.10;;;;;;5036397;28;19916;-79
2021/09/30 15:35:45;;;;;;;;;;;20.60;62.50;;;;;;5036251;28;19905;-79
2021/09/30 15:38:11;;;;;;;;;;;20.30;63.20;;;;;;5034918;28;19912;-79
2021/09/30 15:40:37;;;;;;;;;;;20.10;63.70;;;;;;5036315;28;19944;-79
2021/09/30 15:43:02;;;;;;;;;;;20.20;64.00;;;;;;5034880;28;20361;-79
2021/09/30 15:45:28;;;;;;;;;;;21.80;62.10;;;;;;5034848;28;19943;-79
2021/09/30 15:47:54;;;;;;;;;;;22.50;60.40;;;;;;5036066;28;19947;-79
2021/09/30 15:50:20;;;;;;;;;;;21.60;60.00;;;;;;5036128;28;20004;-79
2021/09/30 15:52:45;;;;;;;;;;;20.40;63.20;;;;;;5035988;28;20393;-79
2021/09/30 15:55:11;;;;;;;;;;;20.00;65.10;;;;;;5035945;28;19905;-79
2021/09/30 15:57:40;;;;;;;;;;;20.20;65.30;;;;;;5035915;28;19988;-79
2021/09/30 16:00:07;;;;;;;;;;;20.40;63.20;;;;;;5035893;28;20277;-79
2021/09/30 16:02:33;;;;;;;;;;;22.00;61.70;;;;;;5035795;28;20000;-79
2021/09/30 16:05:01;;;;;;;;;;;22.50;59.40;;;;;;5035469;28;20384;-80
2021/09/30 16:07:27;;;;;;;;;;;22.90;58.80;;;;;;5035870;28;19944;-79
2021/09/30 16:09:52;;;;;;;;;;;20.80;60.80;;;;;;5034367;28;19952;-79
2021/09/30 16:12:19;;;;;;;;;;;20.00;64.00;;;;;;5035606;28;20000;-79
2021/09/30 16:14:48;;;;;;;;;;;19.70;66.30;;;;;;5035557;28;19912;-78
2021/09/30 16:17:13;;;;;;;;;;;20.80;64.40;;;;;;5035344;28;19954;-79
2021/09/30 16:19:39;;;;;;;;;;;22.20;61.00;;;;;;5035442;28;19996;-79
2021/09/30 16:22:04;;;;;;;;;;;20.50;63.70;;;;;;5034175;28;19972;-79
2021/09/30 16:24:31;;;;;;;;;;;19.80;66.40;;;;;;5035417;28;19912;-79
2021/09/30 16:26:58;;;;;;;;;;;19.30;67.80;;;;;;5035339;28;19908;-78
2021/09/30 16:29:25;;;;;;;;;;;19.10;68.70;;;;;;5035480;28;20371;-79
2021/09/30 16:31:51;;;;;;;;;;;19.90;68.60;;;;;;5035175;28;20361;-78
2021/09/30 16:34:18;;;;;;;;;;;19.50;68.30;;;;;;5035210;28;19909;-79
2021/09/30 16:36:45;;;;;;;;;;;19.20;68.60;;;;;;5034044;28;19967;-78
2021/09/30 16:39:11;;;;;;;;;;;19.00;69.90;;;;;;5035048;28;19951;-79
2021/09/30 16:41:37;;;;;;;;;;;20.60;69.30;;;;;;5035083;28;19905;-78
2021/09/30 16:44:03;;;;;;;;;;;21.50;63.80;;;;;;5035072;28;19975;-79
2021/09/30 16:46:28;;;;;;;;;;;20.60;66.80;;;;;;5035427;28;19959;-79
2021/09/30 16:48:54;;;;;;;;;;;21.40;65.30;;;;;;5035071;28;19913;-79
2021/09/30 16:51:20;;;;;;;;;;;21.90;63.80;;;;;;5033507;28;19915;-79
2021/09/30 16:53:46;;;;;;;;;;;21.90;63.80;;;;;;5034771;28;19987;-79
2021/09/30 16:56:13;;;;;;;;;;;22.40;64.10;;;;;;5034848;28;20365;-78
2021/09/30 16:58:38;;;;;;;;;;;21.90;63.70;;;;;;5033509;28;19954;-79
2021/09/30 17:01:04;;;;;;;;;;;21.70;64.00;;;;;;5034701;28;19988;-79
2021/09/30 17:03:30;;;;;;;;;;;22.10;63.80;;;;;;5034628;28;19905;-78
2021/09/30 17:05:55;;;;;;;;;;;20.20;66.10;;;;;;5034515;28;19959;-78
2021/09/30 17:08:21;;;;;;;;;;;19.80;69.40;;;;;;5034586;28;19991;-78
2021/09/30 17:10:46;;;;;;;;;;;20.30;69.50;;;;;;5034467;28;19917;-78
2021/09/30 17:13:12;;;;;;;;;;;20.50;68.30;;;;;;5034517;28;20006;-78
2021/09/30 17:15:38;;;;;;;;;;;20.60;68.40;;;;;;5034388;28;20000;-79
2021/09/30 17:18:04;;;;;;;;;;;20.20;68.70;;;;;;5033059;28;19908;-78
2021/09/30 17:20:31;;;;;;;;;;;19.20;71.30;;;;;;5033106;28;19905;-79
2021/09/30 17:22:57;;;;;;;;;;;18.50;74.20;;;;;;5034477;28;19909;-78